Time;durP1;ratioP1;P1;durP2;ratioP2;P2;SDS_P1;SDS_P2;PMS_P1;PMS_P2;Temp;Humidity;BMP_temperature;BMP_pressure;BME280_temperature;BME280_humidity;BME280_pressure;Samples;Min_cycle;Max_cycle;Signal;HPM_P1;HPM_P2
2021/12/11 00:00:37;;;;;;;12.57;6.28;;;3.70;99.90;;;3.78;94.18;99361.06;5030839;28;20190;-65
2021/12/11 00:03:23;;;;;;;13.27;7.30;;;3.80;99.90;;;3.68;94.41;99370.31;5014679;28;20194;-65
2021/12/11 00:06:11;;;;;;;13.38;6.18;;;3.60;99.90;;;3.67;94.25;99366.06;5026406;28;20199;-65
2021/12/11 00:08:40;;;;;;;13.52;7.80;;;3.60;99.90;;;3.70;94.17;99368.47;5009774;28;20604;-65
2021/12/11 00:11:12;;;;;;;12.18;6.82;;;3.70;99.90;;;3.71;94.12;99379.56;5009550;28;20723;-64
2021/12/11 00:13:41;;;;;;;14.90;7.43;;;3.60;99.90;;;3.72;94.15;99383.81;5030544;28;20206;-62
2021/12/11 00:16:14;;;;;;;13.05;5.72;;;3.60;99.90;;;3.76;94.58;99390.44;5029894;28;20226;-62
2021/12/11 00:18:41;;;;;;;9.02;5.20;;;3.70;99.90;;;3.80;94.13;99391.91;5031061;28;20214;-61
2021/12/11 00:21:16;;;;;;;10.30;5.97;;;3.80;99.90;;;3.83;94.08;99396.88;5031412;28;20261;-62
2021/12/11 00:24:03;;;;;;;12.95;6.43;;;3.80;99.90;;;3.78;93.99;99396.34;5025148;28;20191;-60
2021/12/11 00:26:42;;;;;;;9.88;5.95;;;3.80;99.90;;;3.81;93.92;99398.72;5019980;28;20195;-65
2021/12/11 00:29:11;;;;;;;13.85;6.80;;;3.70;99.90;;;3.84;94.03;99406.25;5030490;28;20225;-65
2021/12/11 00:31:49;;;;;;;13.60;6.32;;;3.80;99.90;;;3.84;94.14;99412.25;5022400;28;20666;-65
2021/12/11 00:34:20;;;;;;;11.75;6.15;;;3.80;99.90;;;3.86;93.21;99419.88;5021391;28;20210;-62
2021/12/11 00:36:58;;;;;;;12.82;6.75;;;3.80;99.90;;;3.85;93.20;99423.41;5024326;28;20205;-62
2021/12/11 00:39:25;;;;;;;11.60;5.95;;;3.80;99.90;;;3.84;93.24;99429.47;5024611;28;20222;-62
2021/12/11 00:41:55;;;;;;;9.57;5.90;;;3.80;99.90;;;3.88;92.74;99441.25;5010779;28;20202;-63
2021/12/11 00:44:39;;;;;;;12.70;5.32;;;3.80;99.90;;;3.84;92.69;99447.53;5020510;28;20216;-61
2021/12/11 00:47:19;;;;;;;10.48;5.50;;;3.80;99.90;;;3.83;92.57;99456.22;5021396;28;20208;-62
2021/12/11 00:49:57;;;;;;;9.20;6.20;;;3.80;99.90;;;3.82;93.31;99462.28;5027900;28;20300;-63
2021/12/11 00:52:51;;;;;;;10.10;6.80;;;3.70;99.90;;;3.78;93.48;99458.25;5021982;28;20277;-62
2021/12/11 00:55:31;;;;;;;12.88;5.45;;;3.70;99.90;;;3.76;93.70;99467.84;5017415;28;20661;-63
2021/12/11 00:58:14;;;;;;;11.68;6.22;;;3.70;99.90;;;3.77;93.37;99474.63;5024816;28;20205;-63
2021/12/11 01:01:10;;;;;;;8.95;4.85;;;3.70;99.90;;;3.76;93.55;99476.41;5030916;28;20198;-62
2021/12/11 01:03:59;;;;;;;12.13;5.30;;;3.70;99.90;;;3.73;94.23;99486.06;5024193;28;20221;-64
2021/12/11 01:06:38;;;;;;;6.90;4.82;;;3.60;99.90;;;3.78;93.50;99495.19;5016419;28;20205;-65
2021/12/11 01:09:17;;;;;;;10.02;5.05;;;3.70;99.90;;;3.77;93.99;99503.00;5026814;28;20630;-64
2021/12/11 01:11:52;;;;;;;9.57;5.35;;;3.70;99.90;;;3.75;93.89;99510.03;5013384;28;20297;-65
2021/12/11 01:14:37;;;;;;;9.35;4.90;;;3.70;99.90;;;3.77;93.64;99518.50;5031073;28;20206;-65
2021/12/11 01:17:12;;;;;;;11.02;5.32;;;3.70;99.90;;;3.79;93.57;99524.41;5029456;28;20190;-64
2021/12/11 01:19:44;;;;;;;9.75;4.72;;;3.70;99.90;;;3.80;93.91;99528.63;5028046;28;20217;-65
2021/12/11 01:22:35;;;;;;;10.05;5.50;;;3.80;99.90;;;3.83;93.81;99539.59;5013991;28;20190;-65
2021/12/11 01:25:23;;;;;;;7.45;4.50;;;3.80;99.90;;;3.84;93.71;99543.84;5028334;28;20205;-65
2021/12/11 01:27:56;;;;;;;9.25;4.68;;;3.80;99.90;;;3.86;92.99;99548.91;5028378;28;20596;-65
2021/12/11 01:30:40;;;;;;;7.00;3.90;;;3.80;99.90;;;3.90;93.09;99560.69;5030649;28;20194;-65
2021/12/11 01:33:09;;;;;;;7.38;4.55;;;3.80;99.90;;;3.87;92.48;99572.03;5028766;28;20209;-65
2021/12/11 01:35:36;;;;;;;7.20;4.68;;;3.80;99.90;;;3.88;92.50;99572.84;5019192;28;20210;-65
2021/12/11 01:38:17;;;;;;;8.30;4.10;;;3.80;99.90;;;3.90;92.53;99576.16;5026840;28;20577;-65
2021/12/11 01:40:54;;;;;;;7.93;4.65;;;3.80;99.90;;;3.93;92.48;99583.72;5026929;28;20274;-65
2021/12/11 01:43:26;;;;;;;7.28;4.05;;;3.90;99.90;;;3.96;92.49;99595.63;5026496;28;20190;-65
2021/12/11 01:45:55;;;;;;;8.30;4.60;;;3.90;99.90;;;3.98;92.36;99594.63;5030096;28;20190;-65
2021/12/11 01:48:33;;;;;;;6.60;3.75;;;4.00;99.90;;;3.99;92.20;99604.00;5018913;28;20226;-65
2021/12/11 01:51:34;;;;;;;6.85;4.22;;;4.00;99.90;;;4.01;92.18;99612.47;5011422;28;20193;-65
2021/12/11 01:54:19;;;;;;;6.65;4.40;;;4.00;99.90;;;4.02;92.29;99616.72;5005885;28;20207;-65
2021/12/11 01:56:59;;;;;;;3.53;2.88;;;3.90;99.90;;;4.01;92.05;99615.06;5008392;28;20214;-64
2021/12/11 01:59:37;;;;;;;5.43;3.83;;;4.00;99.90;;;4.04;91.87;99626.94;5009768;28;20218;-62
2021/12/11 02:02:14;;;;;;;5.50;3.70;;;4.00;99.90;;;4.04;91.97;99629.53;5008363;28;20663;-65
2021/12/11 02:04:46;;;;;;;2.45;2.25;;;4.00;99.90;;;4.03;92.18;99636.44;5024438;28;20198;-65
2021/12/11 02:07:27;;;;;;;4.47;3.05;;;4.00;99.90;;;4.02;91.66;99639.13;5013822;28;20198;-65
2021/12/11 02:09:58;;;;;;;3.83;2.95;;;4.00;99.90;;;4.03;91.93;99641.59;5025605;28;20564;-65
2021/12/11 02:12:36;;;;;;;2.63;2.42;;;4.00;99.90;;;4.05;92.03;99646.66;5022541;28;20312;-63
2021/12/11 02:15:14;;;;;;;3.95;3.15;;;4.00;99.90;;;4.01;91.97;99648.59;5010024;28;20232;-65
2021/12/11 02:18:13;;;;;;;5.20;3.33;;;3.90;99.90;;;4.02;91.53;99658.03;5024252;28;21059;-65
2021/12/11 02:20:57;;;;;;;4.13;3.35;;;4.00;99.90;;;4.04;91.82;99669.09;5010724;28;20183;-65
2021/12/11 02:23:27;;;;;;;6.38;4.82;;;4.00;99.90;;;4.03;91.46;99672.56;5016705;28;20201;-65
2021/12/11 02:26:01;;;;;;;4.18;2.95;;;4.00;99.90;;;4.07;91.21;99680.97;5029631;28;20646;-64
2021/12/11 02:28:36;;;;;;;3.50;2.85;;;4.00;99.90;;;4.09;90.84;99685.09;5021955;28;20223;-65
2021/12/11 02:31:30;;;;;;;3.60;3.20;;;4.00;99.90;;;4.11;90.51;99687.63;5014433;28;20212;-65
2021/12/11 02:34:28;;;;;;;5.10;4.32;;;4.00;99.90;;;4.09;90.22;99695.44;5033846;28;20673;-65
2021/12/11 02:37:07;;;;;;;4.50;3.60;;;4.00;99.90;;;4.12;89.80;99705.59;5018551;28;20218;-65
2021/12/11 02:39:45;;;;;;;5.45;3.70;;;4.00;99.90;;;4.09;89.73;99705.75;5030950;28;20697;-65
2021/12/11 02:42:35;;;;;;;5.00;3.40;;;4.00;99.90;;;4.11;89.70;99721.16;5031462;28;20198;-65
2021/12/11 02:45:10;;;;;;;4.18;3.65;;;4.00;99.90;;;4.13;89.64;99719.31;5012981;28;20213;-65
2021/12/11 02:47:50;;;;;;;3.00;2.70;;;4.10;99.90;;;4.13;89.04;99722.72;5014066;28;20205;-65
2021/12/11 02:50:31;;;;;;;5.90;3.65;;;4.10;99.90;;;4.14;89.15;99737.28;5012626;28;20563;-64
2021/12/11 02:53:03;;;;;;;6.28;4.10;;;4.10;99.90;;;4.14;89.41;99742.47;5012777;28;20565;-65
2021/12/11 02:55:43;;;;;;;4.32;3.53;;;4.10;99.90;;;4.15;89.12;99751.03;5013028;28;20226;-64
2021/12/11 02:58:16;;;;;;;6.30;3.78;;;4.10;99.90;;;4.11;89.16;99745.22;5018880;28;20230;-65
2021/12/11 03:00:47;;;;;;;6.15;3.90;;;4.00;99.90;;;4.12;88.95;99751.22;5034284;28;20780;-65
2021/12/11 03:03:18;;;;;;;2.83;2.63;;;4.10;99.90;;;4.14;89.28;99757.94;5026201;28;20217;-65
2021/12/11 03:05:57;;;;;;;4.07;3.67;;;4.10;99.90;;;4.12;88.88;99762.38;5031662;28;20210;-65
2021/12/11 03:08:24;;;;;;;3.60;3.30;;;4.10;99.90;;;4.14;89.13;99770.03;5030584;28;20225;-65
2021/12/11 03:10:59;;;;;;;6.35;4.60;;;4.10;99.90;;;4.11;89.14;99773.59;5034954;28;20293;-64
2021/12/11 03:13:29;;;;;;;7.00;3.85;;;4.10;99.90;;;4.12;89.59;99777.88;5028848;28;20198;-64
2021/12/11 03:15:56;;;;;;;3.20;2.70;;;4.10;99.90;;;4.12;89.16;99779.59;5030638;28;20316;-64
2021/12/11 03:18:24;;;;;;;5.13;3.83;;;4.10;99.90;;;4.11;89.56;99783.13;5031681;28;20222;-64
2021/12/11 03:20:52;;;;;;;3.75;3.10;;;4.00;99.90;;;4.12;89.44;99788.19;5023762;28;20191;-64
2021/12/11 03:23:19;;;;;;;3.03;2.13;;;4.10;99.90;;;4.13;89.57;99799.34;5012847;28;20293;-64
2021/12/11 03:25:47;;;;;;;3.60;3.13;;;4.10;99.90;;;4.13;89.34;99799.34;5015710;28;20202;-64
2021/12/11 03:28:18;;;;;;;6.40;3.80;;;4.10;99.90;;;4.14;89.33;99813.91;5031797;28;20226;-64
2021/12/11 03:30:57;;;;;;;4.72;3.60;;;4.10;99.90;;;4.13;89.38;99815.66;5025752;28;20666;-64
2021/12/11 03:33:31;;;;;;;3.95;3.35;;;4.10;99.90;;;4.17;89.17;99826.66;5013021;28;20201;-64
2021/12/11 03:35:59;;;;;;;4.50;3.65;;;4.10;99.90;;;4.17;89.34;99837.81;5013779;28;20223;-65
2021/12/11 03:38:26;;;;;;;5.15;3.65;;;4.10;99.90;;;4.18;89.14;99838.63;5029590;28;20608;-64
2021/12/11 03:40:54;;;;;;;3.05;2.80;;;4.10;99.90;;;4.19;88.94;99841.13;5029613;28;20209;-65
2021/12/11 03:43:26;;;;;;;2.40;2.25;;;4.10;99.90;;;4.22;89.04;99851.25;5011569;28;20191;-65
2021/12/11 03:45:57;;;;;;;3.92;2.75;;;4.20;99.90;;;4.26;89.02;99854.53;5010242;28;20206;-64
2021/12/11 03:48:35;;;;;;;3.53;3.05;;;4.20;99.90;;;4.28;89.07;99861.22;5012642;28;20233;-64
2021/12/11 03:51:08;;;;;;;3.33;1.85;;;4.20;99.90;;;4.29;88.78;99868.06;5016625;28;20194;-64
2021/12/11 03:53:35;;;;;;;4.25;3.50;;;4.20;99.90;;;4.31;88.71;99871.41;5031743;28;20304;-64
2021/12/11 03:56:07;;;;;;;4.88;3.40;;;4.30;99.90;;;4.30;88.75;99863.75;5025244;28;20580;-64
2021/12/11 03:58:35;;;;;;;4.03;3.67;;;4.20;99.90;;;4.27;89.27;99875.06;5013311;28;20223;-64
2021/12/11 04:01:18;;;;;;;3.40;2.97;;;4.20;99.90;;;4.23;88.54;99878.75;5011248;28;20225;-64
2021/12/11 04:03:49;;;;;;;1.80;1.70;;;4.20;99.90;;;4.30;88.43;99884.41;5019672;28;20282;-64
2021/12/11 04:06:18;;;;;;;3.75;2.97;;;4.20;99.90;;;4.34;87.54;99891.88;5011570;28;20203;-64
2021/12/11 04:08:46;;;;;;;1.73;1.63;;;4.30;99.90;;;4.33;87.97;99903.13;5026507;28;20232;-64
2021/12/11 04:11:24;;;;;;;2.42;2.28;;;4.20;99.90;;;4.32;87.78;99895.47;5029831;28;20213;-64
2021/12/11 04:13:57;;;;;;;4.10;3.13;;;4.20;99.90;;;4.32;88.14;99905.81;5011287;28;20191;-64
2021/12/11 04:16:25;;;;;;;2.15;2.05;;;4.30;99.90;;;4.31;87.80;99909.28;5009352;28;20227;-63
2021/12/11 04:18:52;;;;;;;4.03;3.15;;;4.20;99.90;;;4.31;87.68;99917.88;5012225;28;20231;-64
2021/12/11 04:21:20;;;;;;;4.60;2.97;;;4.20;99.90;;;4.31;88.12;99910.13;5010988;28;20195;-65
2021/12/11 04:23:48;;;;;;;3.30;3.03;;;4.30;99.90;;;4.27;87.97;99918.97;5012300;28;20203;-64
2021/12/11 04:26:15;;;;;;;3.75;2.65;;;4.20;99.90;;;4.30;88.42;99929.13;5010118;28;20210;-64
2021/12/11 04:28:47;;;;;;;2.50;2.30;;;4.20;99.90;;;4.32;88.30;99934.22;5032276;28;20214;-64
2021/12/11 04:31:26;;;;;;;4.35;3.20;;;4.30;99.90;;;4.27;88.31;99934.47;5047959;28;20194;-64
2021/12/11 04:33:58;;;;;;;2.63;2.42;;;4.20;99.90;;;4.26;88.54;99937.97;5038132;28;20574;-64
2021/12/11 04:36:43;;;;;;;3.85;2.92;;;4.10;99.90;;;4.20;88.77;99953.81;5010797;28;20599;-64
2021/12/11 04:39:14;;;;;;;4.00;3.05;;;4.10;99.90;;;4.25;89.01;99950.97;5038952;22;20255;-70
2021/12/11 04:41:55;;;;;;;3.45;2.53;;;4.10;99.90;;;4.19;89.07;99954.75;5038904;28;20202;-69
2021/12/11 04:44:34;;;;;;;0.40;0.40;;;4.10;99.90;;;4.20;88.70;99961.56;5047230;28;20193;-69
2021/12/11 04:47:13;;;;;;;4.35;3.00;;;4.10;99.90;;;4.23;88.51;99969.13;5052246;28;20693;-69
2021/12/11 04:49:48;;;;;;;4.18;3.30;;;4.10;99.90;;;4.25;88.59;99967.28;5037361;28;20625;-69
2021/12/11 04:52:30;;;;;;;4.15;3.47;;;4.20;99.90;;;4.29;88.41;99975.69;5022162;28;20584;-69
2021/12/11 04:55:16;;;;;;;3.92;2.40;;;4.20;99.90;;;4.22;88.56;99972.63;5028847;28;20696;-69
2021/12/11 04:58:04;;;;;;;2.22;2.08;;;4.10;99.90;;;4.16;89.18;99985.03;5031728;28;20315;-69
2021/12/11 05:00:56;;;;;;;6.90;4.55;;;4.00;99.90;;;4.20;88.69;99979.63;5031821;28;20226;-69
2021/12/11 05:09:03;;;;;;;8.07;4.60;;;4.10;99.90;;;4.15;89.13;100002.31;5024723;28;20584;-69
2021/12/11 05:11:41;;;;;;;2.20;1.98;;;4.10;99.90;;;4.11;89.04;100000.78;5027269;28;20678;-69
2021/12/11 05:14:13;;;;;;;6.90;4.60;;;4.00;99.90;;;4.13;89.25;100006.69;5030814;28;20208;-69
2021/12/11 05:16:40;;;;;;;5.38;3.88;;;4.10;99.90;;;4.09;89.40;100020.69;5030403;28;20249;-69
2021/12/11 05:19:08;;;;;;;5.35;3.85;;;4.00;99.90;;;4.07;89.04;100027.69;5032159;28;20222;-69
2021/12/11 05:21:36;;;;;;;6.43;3.20;;;4.00;99.90;;;4.08;88.98;100039.69;5030570;28;20225;-69
2021/12/11 05:24:06;;;;;;;6.63;4.45;;;4.00;99.90;;;4.08;88.68;100044.00;5029225;28;20464;-69
2021/12/11 05:26:36;;;;;;;7.50;4.38;;;4.00;99.90;;;4.11;88.42;100039.50;5029635;28;20210;-69
2021/12/11 05:29:05;;;;;;;4.95;3.45;;;4.00;99.90;;;4.16;88.36;100047.00;5024664;28;20218;-69
2021/12/11 05:31:32;;;;;;;4.57;3.05;;;4.10;99.90;;;4.18;87.98;100050.34;5011245;28;20211;-68
2021/12/11 05:34:00;;;;;;;5.50;3.40;;;4.10;99.90;;;4.07;87.84;100055.28;5028187;28;20786;-69
2021/12/11 05:36:31;;;;;;;5.88;3.85;;;4.00;99.90;;;4.16;87.89;100058.16;5030050;28;20227;-69
2021/12/11 05:38:59;;;;;;;5.15;3.85;;;4.10;99.90;;;4.17;87.68;100062.44;5029129;28;20230;-69
2021/12/11 05:41:27;;;;;;;5.28;3.75;;;4.10;99.90;;;4.14;87.83;100067.75;5028721;28;20205;-69
2021/12/11 05:43:55;;;;;;;5.00;3.65;;;4.00;99.90;;;4.19;87.55;100072.66;5028418;28;20692;-69
2021/12/11 05:46:22;;;;;;;5.70;3.65;;;4.00;99.90;;;4.17;87.88;100066.75;5031578;28;20201;-68
2021/12/11 05:48:52;;;;;;;5.68;3.72;;;4.10;99.90;;;4.16;88.03;100075.41;5030108;28;20233;-68
2021/12/11 05:51:22;;;;;;;7.07;3.85;;;4.00;99.90;;;4.22;87.63;100083.66;5029002;28;20316;-69
2021/12/11 05:53:55;;;;;;;5.35;3.58;;;4.10;99.90;;;4.26;87.29;100087.72;5030366;28;20213;-69
2021/12/11 05:56:23;;;;;;;7.20;4.43;;;4.20;99.90;;;4.30;86.84;100096.16;5030062;28;20222;-69
2021/12/11 06:01:29;;;;;;;5.15;3.40;;;4.10;99.90;;;4.23;87.40;100105.16;5019296;28;20215;-68
2021/12/11 06:04:00;;;;;;;5.45;3.45;;;4.10;99.90;;;4.22;87.32;100114.63;5015983;28;20195;-69
2021/12/11 06:06:27;;;;;;;9.63;4.63;;;4.10;99.90;;;4.15;87.65;100113.31;5008056;28;20753;-69
2021/12/11 06:08:54;;;;;;;6.20;4.15;;;4.00;99.90;;;4.21;87.39;100118.16;5026231;28;20230;-69
2021/12/11 06:11:21;;;;;;;6.18;3.90;;;4.10;99.90;;;4.17;87.60;100121.81;5020073;28;20209;-68
2021/12/11 06:13:48;;;;;;;5.07;3.33;;;4.10;99.90;;;4.15;87.32;100125.38;5028835;28;20233;-70
2021/12/11 06:16:16;;;;;;;5.38;3.58;;;4.10;99.90;;;4.15;87.50;100127.97;5011803;28;20228;-68
2021/12/11 06:18:45;;;;;;;5.63;3.83;;;4.00;99.90;;;4.16;87.36;100130.47;5029762;28;20321;-69
2021/12/11 06:21:13;;;;;;;5.90;3.80;;;4.10;99.90;;;4.16;87.92;100139.94;5029469;28;20208;-69
2021/12/11 06:23:41;;;;;;;5.15;3.65;;;4.00;99.90;;;4.18;88.00;100145.88;5030409;28;20202;-69
2021/12/11 06:26:09;;;;;;;5.82;3.67;;;4.10;99.90;;;4.19;87.96;100155.28;5028018;28;20233;-69
2021/12/11 06:28:37;;;;;;;7.75;4.53;;;4.10;99.90;;;4.19;87.47;100158.72;5031437;28;20221;-69
2021/12/11 06:31:06;;;;;;;5.75;3.15;;;4.10;99.90;;;4.20;87.81;100162.94;5011906;28;20575;-69
2021/12/11 06:33:34;;;;;;;5.45;3.90;;;4.10;99.90;;;4.23;87.81;100172.28;5027730;28;20216;-69
2021/12/11 06:36:10;;;;;;;7.97;4.43;;;4.10;99.90;;;4.24;87.80;100176.56;5021885;28;20201;-69
2021/12/11 06:38:38;;;;;;;6.75;4.15;;;4.10;99.90;;;4.25;87.32;100188.53;5026470;28;20224;-69
2021/12/11 06:41:11;;;;;;;7.68;3.90;;;4.20;99.90;;;4.28;87.51;100196.94;5012329;28;20206;-69
2021/12/11 06:43:39;;;;;;;5.53;3.83;;;4.20;99.90;;;4.30;87.67;100197.69;5011840;28;20198;-69
2021/12/11 06:46:08;;;;;;;6.07;4.60;;;4.20;99.90;;;4.32;87.74;100201.03;5030835;28;20301;-68
2021/12/11 06:48:36;;;;;;;7.93;4.85;;;4.20;99.90;;;4.33;87.92;100207.88;5028718;28;20221;-69
2021/12/11 06:51:05;;;;;;;6.40;3.88;;;4.20;99.90;;;4.33;88.04;100207.88;5027341;28;20202;-69
2021/12/11 06:53:53;;;;;;;4.60;3.65;;;4.20;99.90;;;4.35;87.77;100218.94;5029911;28;20194;-69
2021/12/11 06:56:21;;;;;;;5.75;4.05;;;4.20;99.90;;;4.37;87.59;100218.84;5027958;28;20226;-69
2021/12/11 06:58:51;;;;;;;8.02;4.55;;;4.30;99.90;;;4.36;87.64;100233.53;5020960;28;20221;-69
2021/12/11 07:01:21;;;;;;;5.80;4.47;;;4.30;99.90;;;4.37;87.19;100240.38;5027778;28;20202;-69
2021/12/11 07:03:49;;;;;;;5.82;4.10;;;4.30;99.90;;;4.35;87.62;100244.78;5029350;28;20284;-68
2021/12/11 07:06:17;;;;;;;5.50;4.00;;;4.30;99.90;;;4.36;87.72;100248.22;5028215;28;20236;-68
2021/12/11 07:08:46;;;;;;;5.68;4.45;;;4.20;99.90;;;4.37;87.68;100271.34;5027483;28;20314;-69
2021/12/11 07:11:14;;;;;;;6.03;4.15;;;4.20;99.90;;;4.37;88.18;100271.34;5029938;28;20202;-69
2021/12/11 07:13:43;;;;;;;8.45;4.85;;;4.30;99.90;;;4.36;87.87;100279.19;5029228;28;20205;-69
2021/12/11 07:16:11;;;;;;;9.32;5.28;;;4.30;99.90;;;4.35;87.74;100286.09;5028344;28;20674;-68
2021/12/11 07:18:39;;;;;;;6.32;4.10;;;4.30;99.90;;;4.37;88.08;100288.59;5030389;28;20218;-69
2021/12/11 07:21:08;;;;;;;9.13;4.75;;;4.30;99.90;;;4.37;88.49;100297.19;5030626;28;20498;-69
2021/12/11 07:23:41;;;;;;;4.60;4.20;;;4.30;99.90;;;4.39;88.09;100303.09;5021954;28;20209;-68
2021/12/11 07:26:23;;;;;;;7.55;4.65;;;4.30;99.90;;;4.39;88.23;100313.44;5012388;28;20290;-69
2021/12/11 07:28:55;;;;;;;5.07;3.35;;;4.30;99.90;;;4.41;88.32;100326.25;5027251;28;20737;-70
2021/12/11 07:31:24;;;;;;;8.95;4.80;;;4.30;99.90;;;4.39;88.47;100326.34;5032930;28;20293;-68
2021/12/11 07:33:52;;;;;;;5.30;4.15;;;4.30;99.90;;;4.40;88.64;100340.97;5030601;28;20198;-69
2021/12/11 07:36:21;;;;;;;5.95;4.65;;;4.30;99.90;;;4.39;88.58;100347.03;5029841;28;20202;-69
2021/12/11 07:38:48;;;;;;;6.60;3.60;;;4.30;99.90;;;4.39;88.31;100349.59;5031311;28;20638;-70
2021/12/11 07:41:17;;;;;;;6.57;4.43;;;4.30;99.90;;;4.40;88.58;100371.94;5032650;28;20205;-69
2021/12/11 07:43:46;;;;;;;8.43;5.25;;;4.30;99.90;;;4.39;88.67;100370.28;5031115;28;20204;-69
2021/12/11 07:46:18;;;;;;;6.70;4.05;;;4.30;99.90;;;4.37;88.34;100372.09;5028421;28;20276;-68
2021/12/11 07:48:47;;;;;;;6.45;4.13;;;4.20;99.90;;;4.36;88.50;100380.78;5031403;28;20745;-69
2021/12/11 07:51:15;;;;;;;4.53;3.75;;;4.30;99.90;;;4.36;89.06;100387.69;5015445;28;20206;-69
2021/12/11 07:53:43;;;;;;;7.30;4.18;;;4.20;99.90;;;4.39;88.76;100390.94;5030162;28;20224;-69
2021/12/11 07:56:11;;;;;;;6.63;4.28;;;4.30;99.90;;;4.37;88.80;100405.69;5017287;28;20191;-69
2021/12/11 07:58:39;;;;;;;8.00;4.70;;;4.30;99.90;;;4.38;88.67;100397.03;5029956;28;20591;-69
2021/12/11 08:01:08;;;;;;;6.50;3.85;;;4.30;99.90;;;4.40;88.54;100405.53;5031570;28;20202;-69
2021/12/11 08:03:36;;;;;;;8.15;4.60;;;4.30;99.90;;;4.45;88.23;100421.63;5015085;28;20253;-68
2021/12/11 08:06:05;;;;;;;9.27;5.25;;;4.40;99.90;;;4.48;87.90;100421.47;5023910;28;20683;-69
2021/12/11 08:08:33;;;;;;;5.53;3.88;;;4.40;99.90;;;4.52;87.92;100430.75;5023948;28;20240;-70
2021/12/11 08:11:07;;;;;;;8.45;4.60;;;4.50;99.90;;;4.58;87.69;100424.41;5030905;28;20229;-69
2021/12/11 08:13:33;;;;;;;7.03;4.30;;;4.60;99.90;;;4.66;87.35;100427.47;5029671;28;20210;-66
2021/12/11 08:16:01;;;;;;;8.93;5.10;;;4.70;99.90;;;4.72;86.58;100435.75;5031581;28;20208;-69
2021/12/11 08:18:28;;;;;;;5.82;3.80;;;4.70;99.90;;;4.84;86.10;100433.44;5031043;28;20255;-69
2021/12/11 08:20:56;;;;;;;7.65;4.05;;;4.80;99.90;;;4.92;84.99;100446.81;5031085;28;20229;-69
2021/12/11 08:23:23;;;;;;;6.80;4.65;;;4.90;99.90;;;5.02;85.10;100445.41;5029951;28;20198;-70
2021/12/11 08:25:53;;;;;;;9.85;4.45;;;5.00;99.90;;;5.17;83.48;100466.16;5031001;28;20674;-69
2021/12/11 08:28:26;;;;;;;7.50;4.30;;;5.20;99.90;;;5.19;82.89;100464.31;5029316;28;20284;-69
2021/12/11 08:30:54;;;;;;;5.88;3.83;;;5.20;99.90;;;5.20;82.62;100465.13;5030758;28;21172;-69
2021/12/11 08:33:24;;;;;;;6.45;4.07;;;5.20;99.90;;;5.22;82.52;100477.06;5029891;28;20214;-69
2021/12/11 08:35:53;;;;;;;10.85;4.50;;;5.10;99.90;;;5.24;82.20;100476.97;5031035;28;20206;-69
2021/12/11 08:38:21;;;;;;;7.53;4.88;;;5.20;99.90;;;5.29;81.95;100481.03;5029457;28;20225;-69
2021/12/11 08:40:53;;;;;;;6.20;4.75;;;5.30;99.90;;;5.32;81.02;100488.59;5031464;28;20422;-68
2021/12/11 08:43:22;;;;;;;9.85;5.72;;;5.30;99.90;;;5.39;80.78;100491.69;5028544;28;20206;-69
2021/12/11 08:46:03;;;;;;;11.48;5.70;;;5.40;99.90;;;5.46;81.31;100491.31;5029498;28;20224;-69
2021/12/11 08:48:31;;;;;;;11.00;6.10;;;5.50;99.90;;;5.51;81.10;100502.25;5030990;28;20201;-69
2021/12/11 08:51:08;;;;;;;10.13;5.75;;;5.60;99.90;;;5.61;80.71;100499.16;5030491;28;21219;-69
2021/12/11 08:53:36;;;;;;;9.37;5.63;;;5.60;99.90;;;5.70;79.71;100507.28;5030387;28;20205;-69
2021/12/11 08:56:08;;;;;;;9.65;5.68;;;5.70;99.90;;;5.72;79.29;100508.03;5029509;28;20636;-68
2021/12/11 08:58:36;;;;;;;10.97;6.10;;;5.70;99.90;;;5.73;79.13;100509.69;5027873;28;20221;-69
2021/12/11 09:01:10;;;;;;;9.88;5.50;;;5.80;99.90;;;5.82;79.11;100529.09;5031369;28;20617;-68
2021/12/11 09:04:12;;;;;;;8.60;4.83;;;5.80;99.90;;;5.90;78.38;100527.78;5029433;28;20252;-70
2021/12/11 09:06:55;;;;;;;13.17;7.20;;;5.90;99.90;;;5.98;78.33;100538.59;5034872;28;20658;-69
2021/12/11 09:09:32;;;;;;;12.30;6.40;;;6.00;99.90;;;6.08;77.74;100546.66;5018535;28;20747;-67
2021/12/11 09:12:17;;;;;;;10.50;6.40;;;6.10;99.90;;;6.12;77.55;100550.75;5029552;28;20630;-70
2021/12/11 09:14:51;;;;;;;14.07;6.60;;;6.20;99.90;;;6.13;77.04;100548.06;5031744;28;20618;-69
2021/12/11 09:17:32;;;;;;;10.40;6.57;;;6.10;99.90;;;6.14;76.50;100562.72;5030887;28;21034;-69
2021/12/11 09:20:12;;;;;;;8.37;4.80;;;6.10;99.90;;;6.17;76.70;100566.91;5030242;28;21007;-69
2021/12/11 09:22:47;;;;;;;12.20;6.17;;;6.20;99.90;;;6.17;76.76;100572.06;5026089;28;20644;-69
2021/12/11 09:25:43;;;;;;;8.43;4.87;;;6.20;99.90;;;6.14;76.25;100580.84;5026373;28;20613;-70
2021/12/11 09:28:24;;;;;;;7.57;5.20;;;6.10;99.90;;;6.13;77.38;100586.13;5029118;28;20715;-69
2021/12/11 09:31:21;;;;;;;11.30;5.33;;;6.10;99.90;;;6.13;76.20;100586.94;5017223;28;20637;-69
2021/12/11 09:33:56;;;;;;;5.30;3.80;;;6.10;99.90;;;6.11;76.32;100598.31;5011698;28;20601;-69
2021/12/11 09:36:35;;;;;;;5.38;3.90;;;6.10;99.90;;;6.10;76.33;100605.25;5026356;28;20659;-69
2021/12/11 09:39:17;;;;;;;8.70;5.03;;;6.00;99.90;;;6.11;77.15;100608.69;5029143;28;20225;-69
2021/12/11 09:41:44;;;;;;;11.77;5.43;;;6.00;99.90;;;6.09;77.09;100615.69;5030812;28;20625;-69
2021/12/11 09:44:24;;;;;;;12.23;5.83;;;6.00;99.90;;;6.10;77.72;100622.53;5045137;28;20630;-71
2021/12/11 09:47:04;;;;;;;11.63;6.70;;;6.10;99.90;;;6.15;77.73;100615.38;5028076;28;20637;-69
2021/12/11 09:49:42;;;;;;;8.37;5.30;;;6.10;99.90;;;6.19;77.44;100619.47;5027315;28;20805;-68
2021/12/11 09:52:18;;;;;;;11.20;6.50;;;6.10;99.90;;;6.20;76.41;100619.38;5029361;28;20757;-68
2021/12/11 09:54:52;;;;;;;8.73;5.77;;;6.20;99.90;;;6.26;76.85;100620.81;5029946;28;20998;-68
2021/12/11 09:57:23;;;;;;;8.50;5.40;;;6.20;99.90;;;6.34;77.76;100628.16;5027719;28;20665;-68
2021/12/11 09:59:55;;;;;;;8.43;5.80;;;6.30;99.90;;;6.39;77.21;100633.94;5011679;28;20683;-69
2021/12/11 10:02:30;;;;;;;7.43;4.57;;;6.40;99.90;;;6.44;76.75;100637.09;5030740;28;20605;-69
2021/12/11 10:05:18;;;;;;;8.37;5.20;;;6.40;99.90;;;6.44;75.95;100637.94;5027164;28;20636;-72
2021/12/11 10:08:02;;;;;;;7.30;4.87;;;6.40;99.90;;;6.45;75.65;100641.38;5031127;28;20715;-71
2021/12/11 10:10:29;;;;;;;8.63;5.40;;;6.40;99.90;;;6.50;76.05;100642.78;5029412;28;20644;-69
2021/12/11 10:12:58;;;;;;;9.33;4.93;;;6.50;99.90;;;6.50;76.67;100650.56;5031313;28;21198;-70
2021/12/11 10:15:38;;;;;;;7.73;5.07;;;6.50;99.90;;;6.55;75.72;100650.31;5030904;28;20724;-71
2021/12/11 10:18:14;;;;;;;8.43;5.40;;;6.50;99.90;;;6.58;76.23;100655.34;5030579;28;20666;-69
2021/12/11 10:20:58;;;;;;;11.80;5.50;;;6.60;99.90;;;6.58;76.20;100656.16;5011605;28;20723;-69
2021/12/11 10:23:31;;;;;;;9.23;5.53;;;6.60;99.90;;;6.64;76.24;100650.66;5009146;28;20623;-68
2021/12/11 10:26:04;;;;;;;7.73;4.00;;;6.70;99.90;;;6.70;76.18;100657.22;5024548;28;20617;-68
2021/12/11 10:28:31;;;;;;;6.07;4.67;;;6.70;99.90;;;6.75;75.23;100663.81;5020581;28;20656;-67
2021/12/11 10:31:12;;;;;;;6.40;4.13;;;6.80;99.90;;;6.80;76.13;100658.38;5038972;28;20623;-68
2021/12/11 10:33:39;;;;;;;7.50;4.17;;;6.80;99.90;;;6.87;75.21;100657.13;5029446;28;20629;-68
2021/12/11 10:36:19;;;;;;;5.83;3.47;;;6.90;99.90;;;6.92;75.33;100660.31;5028942;28;20651;-68
2021/12/11 10:38:48;;;;;;;7.47;4.37;;;7.00;99.90;;;6.96;75.13;100654.84;5041147;22;20673;-62
2021/12/11 10:41:25;;;;;;;6.33;4.90;;;7.00;99.90;;;6.98;74.42;100659.97;5008556;28;21243;-62
2021/12/11 10:43:58;;;;;;;7.67;5.10;;;7.00;99.90;;;7.00;73.88;100660.72;5009080;28;20637;-63
2021/12/11 10:46:33;;;;;;;7.43;4.03;;;7.00;99.90;;;6.98;74.53;100659.97;5010867;28;20720;-63
2021/12/11 10:49:04;;;;;;;7.30;4.70;;;7.00;99.90;;;6.96;74.30;100667.00;5007945;28;21257;-63
2021/12/11 10:51:39;;;;;;;6.30;3.90;;;6.90;99.90;;;7.01;74.67;100675.34;5008640;28;20638;-63
2021/12/11 10:54:08;;;;;;;6.20;3.60;;;7.00;99.90;;;7.02;73.89;100671.84;5010438;28;20663;-64
2021/12/11 10:56:37;;;;;;;6.93;4.23;;;7.00;99.90;;;7.07;74.44;100675.81;5005889;28;20633;-64
2021/12/11 10:59:11;;;;;;;7.43;3.73;;;7.10;99.90;;;7.19;73.32;100683.84;5013946;28;20673;-64
2021/12/11 11:02:01;;;;;;;8.70;5.10;;;7.20;99.90;;;7.23;72.17;100681.00;5015206;28;20767;-63
2021/12/11 11:04:38;;;;;;;5.43;3.80;;;7.20;99.90;;;7.30;72.64;100684.06;5015269;28;20720;-65